Time;durP1;ratioP1;P1;durP2;ratioP2;P2;SDS_P1;SDS_P2;PMS_P1;PMS_P2;Temp;Humidity;BMP_temperature;BMP_pressure;BME280_temperature;BME280_humidity;BME280_pressure;Samples;Min_cycle;Max_cycle;Signal;HPM_P1;HPM_P2
2022/09/19 00:01:41;;;;;;;;;;;;;;;14.20;59.97;99296.22;4380606;32;19990;-89
2022/09/19 00:04:11;;;;;;;;;;;;;;;14.24;59.96;99293.34;4381172;32;20008;-87
2022/09/19 00:06:36;;;;;;;;;;;;;;;14.19;59.97;99294.50;4381236;32;20039;-86
2022/09/19 00:09:02;;;;;;;;;;;;;;;14.28;59.97;99294.88;4380914;32;19987;-88
2022/09/19 00:11:27;;;;;;;;;;;;;;;14.30;59.97;99287.78;4394597;32;20033;-88
2022/09/19 00:13:57;;;;;;;;;;;;;;;14.20;59.96;99283.97;4394970;32;20029;-87
2022/09/19 00:16:26;;;;;;;;;;;;;;;14.27;59.97;99287.94;4380676;32;19987;-88
2022/09/19 00:18:52;;;;;;;;;;;;;;;14.39;59.97;99274.16;4380881;32;19970;-87
2022/09/19 00:21:21;;;;;;;;;;;;;;;14.37;59.97;99272.56;4368620;32;20380;-87
2022/09/19 00:26:30;;;;;;;;;;;;;;;14.36;59.97;99253.41;4401572;32;20036;-88
2022/09/19 00:28:55;;;;;;;;;;;;;;;14.26;59.96;99248.75;4394807;32;20344;-86
2022/09/19 00:31:21;;;;;;;;;;;;;;;14.24;59.96;99248.84;4393467;32;26562;-87
2022/09/19 00:33:46;;;;;;;;;;;;;;;14.21;59.97;99241.16;4380360;32;19982;-88
2022/09/19 00:36:12;;;;;;;;;;;;;;;14.33;59.96;99237.84;4368035;32;20338;-91
2022/09/19 00:38:37;;;;;;;;;;;;;;;14.31;59.97;99238.87;4380664;32;20355;-90
2022/09/19 00:41:02;;;;;;;;;;;;;;;14.26;59.97;99244.38;4368241;32;20311;-90
2022/09/19 00:43:46;;;;;;;;;;;;;;;14.34;59.98;99236.94;4380372;32;19990;-90
2022/09/19 00:46:11;;;;;;;;;;;;;;;14.42;59.98;99229.47;4394073;32;20468;-89
2022/09/19 00:48:41;;;;;;;;;;;;;;;14.35;59.98;99241.22;4394361;32;19974;-89
2022/09/19 00:51:06;;;;;;;;;;;;;;;14.40;59.97;99238.34;4368274;32;19977;-91
2022/09/19 00:53:32;;;;;;;;;;;;;;;14.32;59.97;99245.78;4368191;32;19990;-90
2022/09/19 00:55:57;;;;;;;;;;;;;;;14.44;59.98;99255.66;4380496;32;19987;-92
2022/09/19 00:58:32;;;;;;;;;;;;;;;14.16;59.96;99258.88;4367882;32;20102;-89
2022/09/19 01:00:59;;;;;;;;;;;;;;;14.31;59.97;99257.19;4368029;32;20069;-90
2022/09/19 01:03:25;;;;;;;;;;;;;;;14.24;59.96;99243.62;4380921;32;20756;-90
2022/09/19 01:06:05;;;;;;;;;;;;;;;14.35;59.98;99245.63;4380470;32;20016;-90
2022/09/19 01:08:50;;;;;;;;;;;;;;;14.28;59.97;99242.50;4380664;32;19986;-89
2022/09/19 01:11:21;;;;;;;;;;;;;;;14.38;59.97;99233.19;4380514;32;20260;-88
2022/09/19 01:13:50;;;;;;;;;;;;;;;14.33;59.98;99250.94;4380518;32;20283;-88
2022/09/19 01:16:20;;;;;;;;;;;;;;;14.39;59.97;99247.13;4380539;32;19978;-89
2022/09/19 01:19:05;;;;;;;;;;;;;;;14.22;59.97;99247.25;4368076;32;19992;-90
2022/09/19 01:21:38;;;;;;;;;;;;;;;13.98;59.95;99255.50;4349405;32;20002;-91
2022/09/19 01:24:19;;;;;;;;;;;;;;;14.00;59.95;99251.03;4368216;32;20096;-90
2022/09/19 01:26:58;;;;;;;;;;;;;;;14.11;59.96;99239.97;4383021;32;19997;-90
2022/09/19 01:29:36;;;;;;;;;;;;;;;14.13;59.96;99238.94;4380842;32;19982;-89
2022/09/19 01:32:01;;;;;;;;;;;;;;;14.23;59.97;99234.06;4380157;32;20013;-89
2022/09/19 01:34:28;;;;;;;;;;;;;;;14.42;59.98;99226.00;4380435;32;20257;-90
2022/09/19 01:37:00;;;;;;;;;;;;;;;14.51;59.98;99230.78;4367922;32;20373;-89
2022/09/19 01:39:25;;;;;;;;;;;;;;;14.55;59.98;99232.31;4368025;32;19986;-90
2022/09/19 01:41:51;;;;;;;;;;;;;;;14.45;59.98;99228.53;4366436;32;24873;-89
2022/09/19 01:44:17;;;;;;;;;;;;;;;14.37;59.98;99228.06;4367787;32;19990;-88
2022/09/19 01:46:45;;;;;;;;;;;;;;;14.41;59.98;99224.34;4368047;32;19997;-90
2022/09/19 01:49:16;;;;;;;;;;;;;;;14.41;59.99;99216.47;4381851;32;20328;-91
2022/09/19 01:51:45;;;;;;;;;;;;;;;14.42;59.99;99218.16;4379751;32;19976;-89
2022/09/19 01:54:29;;;;;;;;;;;;;;;14.44;59.98;99216.37;4380578;32;20478;-89
2022/09/19 01:57:08;;;;;;;;;;;;;;;14.43;59.98;99214.63;4393849;32;20035;-89
2022/09/19 01:59:47;;;;;;;;;;;;;;;14.25;59.96;99219.12;4379906;32;19971;-88
2022/09/19 02:02:27;;;;;;;;;;;;;;;14.24;59.96;99220.06;4393849;32;20106;-88
2022/09/19 02:04:58;;;;;;;;;;;;;;;14.29;59.97;99214.56;4380429;32;20058;-89
2022/09/19 02:07:45;;;;;;;;;;;;;;;14.35;59.98;99215.06;4367850;32;19990;-88
2022/09/19 02:10:59;;;;;;;;;;;;;;;;;;;;;
2022/09/19 02:13:24;;;;;;;;;;;;;;;14.33;59.98;99218.69;4330519;33;36644;-88
2022/09/19 02:15:53;;;;;;;;;;;;;;;14.41;59.98;99219.09;4332029;33;20004;-90
2022/09/19 02:18:26;;;;;;;;;;;;;;;14.27;59.97;99230.34;4346698;32;20021;-88
2022/09/19 02:20:56;;;;;;;;;;;;;;;14.25;59.96;99229.59;4380270;32;19990;-89
2022/09/19 02:23:26;;;;;;;;;;;;;;;14.13;59.96;99228.47;4380609;32;20053;-89
2022/09/19 02:25:51;;;;;;;;;;;;;;;14.11;59.96;99230.34;4367683;32;20016;-89
2022/09/19 02:28:18;;;;;;;;;;;;;;;14.00;59.95;99239.72;4367572;32;20335;-89
2022/09/19 02:30:44;;;;;;;;;;;;;;;13.95;59.96;99241.72;4380159;32;19982;-89
2022/09/19 02:33:10;;;;;;;;;;;;;;;13.88;59.95;99245.59;4367481;32;19994;-89
2022/09/19 02:35:47;;;;;;;;;;;;;;;13.99;59.95;99245.87;4380105;32;20348;-88
2022/09/19 02:38:22;;;;;;;;;;;;;;;14.23;59.96;99239.31;4393702;32;20321;-88
2022/09/19 02:40:59;;;;;;;;;;;;;;;14.06;59.96;99255.91;4380030;32;19962;-88
2022/09/19 02:43:46;;;;;;;;;;;;;;;14.12;59.96;99242.50;4380295;32;19991;-88
2022/09/19 02:46:30;;;;;;;;;;;;;;;14.17;59.96;99244.00;4393982;32;19987;-88
2022/09/19 02:49:05;;;;;;;;;;;;;;;14.29;59.97;99245.97;4380256;32;19997;-89
2022/09/19 02:51:47;;;;;;;;;;;;;;;14.01;59.95;99241.41;4380133;32;20304;-89
2022/09/19 02:54:14;;;;;;;;;;;;;;;14.21;59.96;99237.72;4383708;32;19994;-89
2022/09/19 02:56:59;;;;;;;;;;;;;;;14.01;59.95;99239.63;4372615;32;19999;-90
2022/09/19 02:59:26;;;;;;;;;;;;;;;14.29;59.97;99233.72;4384123;32;19987;-89
2022/09/19 03:01:56;;;;;;;;;;;;;;;14.02;59.96;99233.47;4372487;32;20001;-89
2022/09/19 03:04:23;;;;;;;;;;;;;;;14.00;59.95;99235.31;4384998;32;20366;-90
2022/09/19 03:06:51;;;;;;;;;;;;;;;14.25;59.96;99218.28;4385362;32;20002;-89
2022/09/19 03:09:17;;;;;;;;;;;;;;;13.90;59.95;99225.41;4374026;32;19962;-88
2022/09/19 03:11:43;;;;;;;;;;;;;;;13.88;59.95;99222.03;4372576;32;20328;-88
2022/09/19 03:14:09;;;;;;;;;;;;;;;14.06;59.96;99214.06;4385413;32;19993;-88
2022/09/19 03:16:35;;;;;;;;;;;;;;;14.01;59.95;99215.25;4394776;32;19977;-89
2022/09/19 03:19:04;;;;;;;;;;;;;;;13.88;59.95;99222.87;4375826;32;19990;-88
2022/09/19 03:21:40;;;;;;;;;;;;;;;13.95;59.96;99223.41;4384759;32;20036;-88
2022/09/19 03:24:05;;;;;;;;;;;;;;;14.02;59.96;99228.25;4371863;32;20398;-89
2022/09/19 03:26:32;;;;;;;;;;;;;;;14.07;59.96;99230.59;4371885;32;19986;-89
2022/09/19 03:28:57;;;;;;;;;;;;;;;14.12;59.96;99232.03;4384443;32;19995;-89
2022/09/19 03:31:22;;;;;;;;;;;;;;;14.21;59.96;99222.84;4384451;32;20017;-89
2022/09/19 03:33:50;;;;;;;;;;;;;;;14.11;59.96;99219.03;4384061;32;20003;-88
2022/09/19 03:36:15;;;;;;;;;;;;;;;14.09;59.96;99220.88;4398075;32;19978;-88
2022/09/19 03:38:42;;;;;;;;;;;;;;;14.20;59.97;99221.16;4384282;32;20573;-88
2022/09/19 03:41:08;;;;;;;;;;;;;;;14.13;59.96;99228.47;4384341;32;19998;-88
2022/09/19 03:43:33;;;;;;;;;;;;;;;14.22;59.97;99226.31;4383514;32;24913;-89
2022/09/19 03:45:58;;;;;;;;;;;;;;;14.14;59.96;99227.56;4371569;32;20296;-89
2022/09/19 03:48:24;;;;;;;;;;;;;;;14.20;59.97;99229.00;4383769;32;19990;-90
2022/09/19 03:50:49;;;;;;;;;;;;;;;14.08;59.96;99234.91;4383857;32;19970;-89
2022/09/19 03:53:15;;;;;;;;;;;;;;;14.07;59.96;99234.06;4371014;32;20033;-89
2022/09/19 03:55:41;;;;;;;;;;;;;;;13.98;59.95;99233.72;4383766;32;20001;-88
2022/09/19 03:58:06;;;;;;;;;;;;;;;13.95;59.94;99237.31;4383820;32;20033;-88
2022/09/19 04:00:35;;;;;;;;;;;;;;;14.12;59.96;99233.81;4383569;32;20316;-88
2022/09/19 04:03:00;;;;;;;;;;;;;;;14.04;59.96;99233.38;4371100;32;19998;-89
2022/09/19 04:05:25;;;;;;;;;;;;;;;14.06;59.95;99231.53;4395010;32;20263;-89
2022/09/19 04:07:50;;;;;;;;;;;;;;;14.02;59.95;99240.47;4394558;32;19974;-89
2022/09/19 04:10:15;;;;;;;;;;;;;;;13.98;59.95;99236.34;4394633;32;20003;-90
2022/09/19 04:12:41;;;;;;;;;;;;;;;13.86;59.94;99243.06;4380989;32;20025;-90
2022/09/19 04:15:09;;;;;;;;;;;;;;;13.95;59.96;99239.94;4380616;32;22265;-89
2022/09/19 04:17:38;;;;;;;;;;;;;;;13.90;59.95;99243.75;4381081;32;20057;-89
2022/09/19 04:20:03;;;;;;;;;;;;;;;13.89;59.95;99247.28;4368290;32;19982;-89
2022/09/19 04:22:28;;;;;;;;;;;;;;;13.95;59.96;99244.31;4367924;32;20066;-90
2022/09/19 04:24:53;;;;;;;;;;;;;;;13.81;59.94;99248.53;4381137;32;20032;-91
2022/09/19 04:27:37;;;;;;;;;;;;;;;13.91;59.95;99238.41;4368591;32;20045;-91
2022/09/19 04:30:03;;;;;;;;;;;;;;;13.99;59.95;99235.41;4382750;32;19989;-89
2022/09/19 04:32:50;;;;;;;;;;;;;;;14.07;59.95;99233.22;4368545;32;19991;-89
2022/09/19 04:35:36;;;;;;;;;;;;;;;13.93;59.95;99231.31;4381051;32;20317;-91
2022/09/19 04:38:18;;;;;;;;;;;;;;;14.08;59.96;99230.50;4395551;32;20034;-88
2022/09/19 04:40:47;;;;;;;;;;;;;;;14.17;59.96;99218.69;4371319;32;19997;-91
2022/09/19 04:43:13;;;;;;;;;;;;;;;14.22;59.97;99221.91;4392002;32;20056;-90
2022/09/19 04:45:42;;;;;;;;;;;;;;;14.16;59.96;99224.84;4395059;32;19998;-89
2022/09/19 04:48:08;;;;;;;;;;;;;;;14.25;59.96;99218.28;4381387;32;19996;-88
2022/09/19 04:50:33;;;;;;;;;;;;;;;14.16;59.96;99227.47;4394455;32;19975;-89
2022/09/19 04:52:58;;;;;;;;;;;;;;;14.13;59.96;99227.62;4381503;32;20005;-88
2022/09/19 04:55:25;;;;;;;;;;;;;;;13.96;59.95;99236.44;4394880;32;20006;-88
2022/09/19 04:57:51;;;;;;;;;;;;;;;14.13;59.96;99238.09;4380836;32;19975;-88
2022/09/19 05:00:36;;;;;;;;;;;;;;;14.18;59.96;99236.06;4368137;32;19978;-88
2022/09/19 05:03:02;;;;;;;;;;;;;;;14.03;59.96;99250.00;4382892;32;20009;-88
2022/09/19 05:05:27;;;;;;;;;;;;;;;13.88;59.95;99248.22;4380511;32;19991;-87
2022/09/19 05:07:53;;;;;;;;;;;;;;;13.98;59.95;99255.50;4380537;32;19970;-87
2022/09/19 05:10:18;;;;;;;;;;;;;;;14.07;59.96;99260.22;4393706;32;19962;-87
2022/09/19 05:12:43;;;;;;;;;;;;;;;14.02;59.96;99254.41;4380441;32;20325;-87
2022/09/19 05:15:09;;;;;;;;;;;;;;;14.20;59.97;99273.50;4380041;32;21989;-87
2022/09/19 05:17:37;;;;;;;;;;;;;;;14.20;59.96;99277.91;4379094;32;20037;-86
2022/09/19 05:20:03;;;;;;;;;;;;;;;14.25;59.96;99284.56;4367926;32;20297;-87
2022/09/19 05:22:46;;;;;;;;;;;;;;;14.27;59.97;99287.94;4380427;32;20001;-85
2022/09/19 05:25:15;;;;;;;;;;;;;;;14.28;59.97;99292.25;4367709;32;19994;-87
2022/09/19 05:27:40;;;;;;;;;;;;;;;14.40;59.97;99293.34;4380833;32;19991;-87
2022/09/19 05:30:06;;;;;;;;;;;;;;;14.18;59.96;99308.53;4380399;32;20296;-87
2022/09/19 05:32:34;;;;;;;;;;;;;;;14.14;59.96;99295.59;4393572;32;20049;-88
2022/09/19 05:35:00;;;;;;;;;;;;;;;13.95;59.94;99301.91;4367986;32;19990;-87
2022/09/19 05:37:26;;;;;;;;;;;;;;;13.62;59.93;99302.75;4367916;32;20339;-88
2022/09/19 05:39:51;;;;;;;;;;;;;;;13.74;59.94;99298.66;4367648;32;19983;-86
2022/09/19 05:42:16;;;;;;;;;;;;;;;13.71;59.93;99304.88;4366984;32;31803;-88
2022/09/19 05:44:44;;;;;;;;;;;;;;;13.54;59.93;99319.75;4367302;32;22152;-88
2022/09/19 05:47:10;;;;;;;;;;;;;;;13.72;59.94;99317.06;4380428;32;20307;-89
2022/09/19 05:49:36;;;;;;;;;;;;;;;13.64;59.93;99315.72;4380527;32;19982;-89
2022/09/19 05:53:51;;;;;;;;;;;;;;;13.44;59.92;99316.75;4393720;32;20273;-88
2022/09/19 05:54:47;;;;;;;;;;;;;;;13.50;59.93;99309.47;4382140;32;20018;-87
2022/09/19 05:57:12;;;;;;;;;;;;;;;13.64;59.94;99311.34;4367888;32;20061;-85
2022/09/19 05:59:39;;;;;;;;;;;;;;;13.72;59.95;99310.94;4393986;32;19993;-88
2022/09/19 06:02:05;;;;;;;;;;;;;;;13.51;59.93;99320.75;4380566;32;19990;-87
2022/09/19 06:04:30;;;;;;;;;;;;;;;13.78;59.94;99318.50;4367822;32;20009;-87
2022/09/19 06:06:55;;;;;;;;;;;;;;;13.55;59.93;99319.69;4381790;32;21908;-89
2022/09/19 06:09:20;;;;;;;;;;;;;;;13.58;59.94;99322.13;4373490;32;19989;-86
2022/09/19 06:11:46;;;;;;;;;;;;;;;13.51;59.93;99318.16;4394339;32;20006;-86
2022/09/19 06:14:14;;;;;;;;;;;;;;;13.52;59.93;99320.69;4380186;32;20001;-87
2022/09/19 06:16:41;;;;;;;;;;;;;;;13.43;59.93;99323.75;4379236;32;19982;-86
2022/09/19 06:19:06;;;;;;;;;;;;;;;13.43;59.93;99326.34;4393467;32;20018;-86
2022/09/19 06:21:32;;;;;;;;;;;;;;;13.48;59.92;99326.12;4393733;32;19986;-85
2022/09/19 06:23:57;;;;;;;;;;;;;;;13.43;59.93;99321.13;4393150;32;20004;-86
2022/09/19 06:26:23;;;;;;;;;;;;;;;13.44;59.92;99324.59;4367403;32;19982;-86
2022/09/19 06:28:48;;;;;;;;;;;;;;;13.10;59.90;99326.25;4367028;32;19990;-87
2022/09/19 06:31:13;;;;;;;;;;;;;;;13.15;59.91;99336.47;4378667;32;19995;-85
2022/09/19 06:33:41;;;;;;;;;;;;;;;13.05;59.91;99333.47;4366943;32;20248;-87
2022/09/19 06:36:06;;;;;;;;;;;;;;;13.12;59.91;99331.41;4393233;32;19974;-86
2022/09/19 06:38:32;;;;;;;;;;;;;;;12.97;59.90;99332.97;4379555;32;20000;-87
2022/09/19 06:40:58;;;;;;;;;;;;;;;13.05;59.91;99343.91;4379058;32;19994;-86
2022/09/19 06:43:23;;;;;;;;;;;;;;;12.83;59.89;99349.31;4379409;32;19990;-86
2022/09/19 06:45:48;;;;;;;;;;;;;;;12.71;59.88;99354.25;4379630;32;20350;-87
2022/09/19 06:48:13;;;;;;;;;;;;;;;12.63;59.88;99346.81;4377984;32;19974;-86
2022/09/19 06:50:39;;;;;;;;;;;;;;;12.42;59.86;99356.47;4378423;32;19994;-86
2022/09/19 06:53:04;;;;;;;;;;;;;;;12.38;59.87;99364.50;4377970;32;21880;-86
2022/09/19 06:55:30;;;;;;;;;;;;;;;12.59;59.88;99350.47;4378470;32;20264;-86
2022/09/19 06:57:57;;;;;;;;;;;;;;;12.60;59.88;99349.56;4392171;32;19966;-85
2022/09/19 07:00:25;;;;;;;;;;;;;;;12.68;59.88;99346.56;4378744;32;19982;-85
2022/09/19 07:03:00;;;;;;;;;;;;;;;12.65;59.88;99351.94;4378830;32;19994;-88
2022/09/19 07:05:26;;;;;;;;;;;;;;;12.79;59.88;99354.78;4366101;32;20039;-88
2022/09/19 07:07:52;;;;;;;;;;;;;;;12.71;59.88;99359.50;4378603;32;20322;-88
2022/09/19 07:10:19;;;;;;;;;;;;;;;12.65;59.87;99363.25;4392062;32;20001;-87
2022/09/19 07:12:50;;;;;;;;;;;;;;;12.69;59.88;99359.56;4378673;32;20390;-86
2022/09/19 07:15:15;;;;;;;;;;;;;;;12.65;59.88;99352.78;4392073;32;19974;-87
2022/09/19 07:17:40;;;;;;;;;;;;;;;12.51;59.87;99356.03;4391303;32;26346;-87
2022/09/19 07:20:05;;;;;;;;;;;;;;;12.67;59.88;99364.00;4377724;32;28686;-86
2022/09/19 07:22:31;;;;;;;;;;;;;;;12.78;59.89;99358.31;4378075;32;20001;-88
2022/09/19 07:24:56;;;;;;;;;;;;;;;13.07;59.91;99359.53;4365850;32;20014;-87
2022/09/19 07:27:21;;;;;;;;;;;;;;;13.24;59.91;99356.94;4379002;32;20001;-86
2022/09/19 07:29:47;;;;;;;;;;;;;;;13.33;59.91;99353.91;4379104;32;20345;-87
2022/09/19 07:32:12;;;;;;;;;;;;;;;13.39;59.92;99357.97;4378620;32;19994;-87
2022/09/19 07:34:38;;;;;;;;;;;;;;;13.60;59.93;99350.81;4380014;32;20251;-87
2022/09/19 07:37:04;;;;;;;;;;;;;;;13.66;59.94;99350.50;4392377;32;19996;-85
2022/09/19 07:39:32;;;;;;;;;;;;;;;13.39;59.92;99356.19;4378100;32;19998;-86
2022/09/19 07:41:57;;;;;;;;;;;;;;;13.06;59.90;99355.22;4368083;32;20130;-86
2022/09/19 07:44:22;;;;;;;;;;;;;;;13.22;59.91;99356.16;4380050;32;19986;-86
2022/09/19 07:49:32;;;;;;;;;;;;;;;13.40;59.92;99349.19;4382491;32;20005;-87
2022/09/19 07:51:57;;;;;;;;;;;;;;;13.34;59.92;99345.13;4368569;32;19983;-85
2022/09/19 07:54:22;;;;;;;;;;;;;;;13.08;59.90;99356.84;4366438;32;26991;-86
2022/09/19 07:56:48;;;;;;;;;;;;;;;12.94;59.89;99367.09;4380682;32;20359;-87
2022/09/19 07:59:13;;;;;;;;;;;;;;;13.17;59.90;99372.09;4378954;32;20036;-86
2022/09/19 08:01:38;;;;;;;;;;;;;;;13.23;59.91;99376.16;4379095;32;29881;-86
2022/09/19 08:04:04;;;;;;;;;;;;;;;13.73;59.94;99373.66;4379035;32;28901;-87
2022/09/19 08:06:29;;;;;;;;;;;;;;;13.74;59.94;99377.13;4393957;32;19990;-85
2022/09/19 08:08:54;;;;;;;;;;;;;;;13.86;59.94;99379.09;4393397;32;21534;-86
2022/09/19 08:11:21;;;;;;;;;;;;;;;13.89;59.95;99396.41;4379659;32;19978;-85
2022/09/19 08:13:46;;;;;;;;;;;;;;;13.98;59.95;99390.72;4392508;32;20026;-84
2022/09/19 08:16:12;;;;;;;;;;;;;;;13.92;59.94;99385.78;4378775;32;20268;-84
2022/09/19 08:18:40;;;;;;;;;;;;;;;14.07;59.95;99392.84;4365922;32;36446;-85
2022/09/19 08:21:06;;;;;;;;;;;;;;;14.34;59.98;99388.78;4381581;32;20284;-84
2022/09/19 08:23:31;;;;;;;;;;;;;;;14.56;59.99;99379.81;4380380;32;19974;-87
2022/09/19 08:25:57;;;;;;;;;;;;;;;14.54;59.98;99385.13;4380196;32;20033;-86
2022/09/19 08:28:25;;;;;;;;;;;;;;;14.16;59.96;99392.38;4379285;32;19986;-85
2022/09/19 08:30:50;;;;;;;;;;;;;;;13.65;59.94;99383.66;4380092;32;20009;-86
2022/09/19 08:33:15;;;;;;;;;;;;;;;13.64;59.93;99396.81;4366700;32;31062;-86
2022/09/19 08:35:41;;;;;;;;;;;;;;;13.59;59.93;99409.28;4379242;32;19966;-86
2022/09/19 08:38:06;;;;;;;;;;;;;;;13.48;59.92;99409.78;4380915;32;20006;-86
2022/09/19 08:40:35;;;;;;;;;;;;;;;13.51;59.93;99407.91;4368192;32;20040;-87
2022/09/19 08:43:09;;;;;;;;;;;;;;;13.74;59.93;99406.75;4394457;32;19983;-86
2022/09/19 08:45:46;;;;;;;;;;;;;;;13.82;59.94;99408.97;4380667;32;19983;-86
2022/09/19 08:48:13;;;;;;;;;;;;;;;14.01;59.95;99411.50;4394640;32;20050;-86
2022/09/19 08:50:39;;;;;;;;;;;;;;;14.19;59.96;99409.69;4368165;32;20484;-85
2022/09/19 08:53:05;;;;;;;;;;;;;;;14.36;59.98;99412.25;4381070;32;20009;-86
2022/09/19 08:55:33;;;;;;;;;;;;;;;14.25;59.96;99404.16;4381280;32;20232;-86
2022/09/19 08:58:18;;;;;;;;;;;;;;;14.18;59.96;99414.06;4381550;32;19998;-86
2022/09/19 09:00:45;;;;;;;;;;;;;;;14.24;59.96;99408.53;4394694;32;19997;-87
2022/09/19 09:03:17;;;;;;;;;;;;;;;14.42;59.97;99411.94;4380830;32;20035;-86
2022/09/19 09:05:45;;;;;;;;;;;;;;;14.72;60.00;99415.59;4380833;32;19974;-87
2022/09/19 09:08:30;;;;;;;;;;;;;;;15.02;60.00;99406.97;4380706;32;19998;-87
2022/09/19 09:10:55;;;;;;;;;;;;;;;15.41;60.03;99409.13;4394736;32;20292;-87
2022/09/19 09:13:32;;;;;;;;;;;;;;;15.58;60.04;99421.25;4393395;32;20013;-86
2022/09/19 09:16:02;;;;;;;;;;;;;;;15.54;60.03;99414.50;4381153;32;19974;-86
2022/09/19 09:18:30;;;;;;;;;;;;;;;15.52;60.03;99421.63;4367849;32;20013;-87
2022/09/19 09:21:07;;;;;;;;;;;;;;;15.73;60.04;99415.16;4394317;32;20350;-87
2022/09/19 09:23:39;;;;;;;;;;;;;;;16.09;60.07;99413.91;4394458;32;19975;-85
2022/09/19 09:26:09;;;;;;;;;;;;;;;16.13;60.07;99429.41;4368025;32;19989;-86
2022/09/19 09:28:37;;;;;;;;;;;;;;;15.80;60.05;99420.88;4380382;32;20051;-87
2022/09/19 09:31:06;;;;;;;;;;;;;;;16.00;60.05;99414.47;4394428;32;19979;-87
2022/09/19 09:33:33;;;;;;;;;;;;;;;16.23;60.08;99425.28;4368358;32;19997;-88
2022/09/19 09:36:06;;;;;;;;;;;;;;;15.82;60.05;99419.00;4380640;32;19993;-87
2022/09/19 09:38:32;;;;;;;;;;;;;;;15.87;60.06;99409.97;4367801;32;20351;-88
2022/09/19 09:43:58;;;;;;;;;;;;;;;15.84;60.04;99423.22;4394122;32;20009;-87
2022/09/19 09:46:29;;;;;;;;;;;;;;;15.78;60.04;99425.38;4394265;32;19975;-88
2022/09/19 09:48:55;;;;;;;;;;;;;;;15.70;60.05;99428.47;4394274;32;20001;-87
2022/09/19 09:51:28;;;;;;;;;;;;;;;15.64;60.04;99424.41;4380316;32;19982;-87
2022/09/19 09:54:03;;;;;;;;;;;;;;;16.05;60.06;99423.75;4380365;32;19978;-88
2022/09/19 09:56:34;;;;;;;;;;;;;;;16.20;60.07;99430.72;4394090;32;19991;-87
2022/09/19 10:03:34;;;;;;;;;;;;;;;16.12;60.07;99422.47;4367783;32;20097;-88
2022/09/19 10:05:20;;;;;;;;;;;;;;;16.86;60.11;99421.44;4394180;32;19993;-87
2022/09/19 10:07:58;;;;;;;;;;;;;;;15.95;60.06;99452.34;4380370;32;19966;-87
2022/09/19 10:10:24;;;;;;;;;;;;;;;15.55;60.04;99460.78;4379936;32;20010;-87
2022/09/19 10:12:55;;;;;;;;;;;;;;;15.34;60.03;99461.06;4367626;32;19994;-86
2022/09/19 10:15:21;;;;;;;;;;;;;;;15.38;60.03;99468.75;4380278;32;19989;-86
2022/09/19 10:17:48;;;;;;;;;;;;;;;15.45;60.03;99457.84;4380243;32;20310;-87
2022/09/19 10:20:15;;;;;;;;;;;;;;;15.29;60.02;99467.50;4380110;32;20014;-87
2022/09/19 10:22:41;;;;;;;;;;;;;;;15.12;60.02;99457.94;4380311;32;20387;-87
2022/09/19 10:25:10;;;;;;;;;;;;;;;15.09;60.00;99459.87;4393821;32;20030;-87
2022/09/19 10:27:38;;;;;;;;;;;;;;;15.46;60.03;99443.81;4380527;32;20320;-85
2022/09/19 10:30:10;;;;;;;;;;;;;;;15.21;60.02;99451.34;4367673;32;20056;-86
2022/09/19 10:32:39;;;;;;;;;;;;;;;15.26;60.02;99447.53;4379446;32;20069;-87
2022/09/19 10:35:17;;;;;;;;;;;;;;;15.49;60.04;99454.13;4367491;32;19982;-87
2022/09/19 10:37:43;;;;;;;;;;;;;;;15.18;60.02;99454.16;4379666;32;19982;-87
2022/09/19 10:40:13;;;;;;;;;;;;;;;15.45;60.02;99444.72;4379895;32;19990;-88
2022/09/19 10:42:38;;;;;;;;;;;;;;;15.88;60.05;99437.03;4379981;32;19986;-87
2022/09/19 10:45:25;;;;;;;;;;;;;;;16.16;60.07;99434.47;4380024;32;19978;-88
2022/09/19 10:47:55;;;;;;;;;;;;;;;16.28;60.08;99438.13;4380056;32;19986;-88
2022/09/19 10:50:21;;;;;;;;;;;;;;;16.61;60.09;99434.41;4380233;32;19996;-88
2022/09/19 10:52:47;;;;;;;;;;;;;;;16.69;60.09;99432.16;4393907;32;20002;-88
2022/09/19 10:55:16;;;;;;;;;;;;;;;16.61;60.09;99424.72;4367542;32;19986;-89
2022/09/19 10:57:45;;;;;;;;;;;;;;;16.55;60.09;99425.94;4393840;32;20022;-88
2022/09/19 11:00:21;;;;;;;;;;;;;;;16.81;60.10;99424.38;4367661;32;20005;-88
2022/09/19 11:02:56;;;;;;;;;;;;;;;16.90;60.10;99429.97;4380083;32;20054;-89
2022/09/19 11:05:23;;;;;;;;;;;;;;;16.53;60.09;99430.44;4379958;32;19974;-88
2022/09/19 11:07:48;;;;;;;;;;;;;;;16.32;60.08;99429.13;4379995;32;19979;-88
2022/09/19 11:10:32;;;;;;;;;;;;;;;16.26;60.08;99447.88;4379857;32;19986;-88
2022/09/19 11:13:10;;;;;;;;;;;;;;;16.17;60.07;99472.06;4379526;32;20013;-87
2022/09/19 11:15:37;;;;;;;;;;;;;;;15.10;60.01;99501.75;4395125;32;20354;-88
2022/09/19 11:18:15;;;;;;;;;;;;;;;14.24;59.96;99508.03;4381567;32;19992;-88
2022/09/19 11:20:44;;;;;;;;;;;;;;;13.66;59.93;99508.28;4381678;32;20012;-88
2022/09/19 11:23:13;;;;;;;;;;;;;;;13.46;59.93;99531.91;4368923;32;20033;-88
2022/09/19 11:25:42;;;;;;;;;;;;;;;12.93;59.89;99511.69;4395105;32;19978;-87
2022/09/19 11:28:10;;;;;;;;;;;;;;;12.91;59.89;99519.59;4395266;32;20093;-88
2022/09/19 11:30:36;;;;;;;;;;;;;;;12.88;59.90;99514.50;4395301;32;20336;-86
2022/09/19 11:33:04;;;;;;;;;;;;;;;12.83;59.89;99503.44;4395399;32;20002;-88
2022/09/19 11:35:31;;;;;;;;;;;;;;;13.01;59.90;99498.28;4381443;32;19990;-88
2022/09/19 11:37:56;;;;;;;;;;;;;;;13.29;59.92;99495.28;4395325;32;19988;-87
2022/09/19 11:40:41;;;;;;;;;;;;;;;13.40;59.92;99495.59;4381480;32;20029;-87
2022/09/19 11:43:12;;;;;;;;;;;;;;;13.75;59.94;99499.16;4395375;32;19999;-88
2022/09/19 11:45:54;;;;;;;;;;;;;;;14.12;59.96;99498.16;4395404;32;19978;-87
2022/09/19 11:48:27;;;;;;;;;;;;;;;14.21;59.97;99492.47;4395090;32;19985;-88
2022/09/19 11:51:02;;;;;;;;;;;;;;;14.20;59.97;99497.78;4382971;32;20010;-88
2022/09/19 11:53:30;;;;;;;;;;;;;;;13.95;59.96;99495.53;4381812;32;20002;-87
2022/09/19 11:56:02;;;;;;;;;;;;;;;13.80;59.95;99505.84;4395282;32;20122;-87
2022/09/19 11:58:30;;;;;;;;;;;;;;;13.71;59.94;99497.56;4368732;32;20005;-86
2022/09/19 12:01:03;;;;;;;;;;;;;;;13.61;59.93;99496.34;4395216;32;20058;-86
2022/09/19 12:03:43;;;;;;;;;;;;;;;13.37;59.92;99512.28;4395105;32;20376;-86
2022/09/19 12:06:18;;;;;;;;;;;;;;;13.49;59.93;99514.34;4368983;32;19983;-87
2022/09/19 12:08:44;;;;;;;;;;;;;;;13.47;59.92;99516.16;4381181;32;20315;-87
2022/09/19 12:11:12;;;;;;;;;;;;;;;13.63;59.93;99511.03;4394810;32;19978;-86
2022/09/19 12:13:40;;;;;;;;;;;;;;;13.79;59.95;99512.00;4381258;32;19998;-87
2022/09/19 12:16:07;;;;;;;;;;;;;;;13.97;59.96;99517.25;4381034;32;19979;-88
2022/09/19 12:18:42;;;;;;;;;;;;;;;13.96;59.96;99507.69;4381205;32;19974;-88
2022/09/19 12:21:09;;;;;;;;;;;;;;;13.98;59.95;99508.47;4394933;32;20005;-88
2022/09/19 12:26:22;;;;;;;;;;;;;;;14.08;59.96;99505.31;4393754;32;19989;-87
2022/09/19 12:28:54;;;;;;;;;;;;;;;14.28;59.97;99509.56;4381118;32;19982;-87
2022/09/19 12:31:20;;;;;;;;;;;;;;;14.47;59.98;99512.13;4368050;32;20064;-86
2022/09/19 12:33:51;;;;;;;;;;;;;;;14.58;59.99;99512.38;4367820;32;20382;-86
2022/09/19 12:36:26;;;;;;;;;;;;;;;14.52;59.98;99514.50;4380641;32;20030;-85
2022/09/19 12:39:03;;;;;;;;;;;;;;;14.40;59.97;99513.28;4394464;32;20324;-88
2022/09/19 12:41:40;;;;;;;;;;;;;;;14.33;59.98;99510.16;4380741;32;20328;-88
2022/09/19 12:44:12;;;;;;;;;;;;;;;14.50;59.98;99509.34;4394318;32;19987;-87
2022/09/19 12:46:56;;;;;;;;;;;;;;;14.72;60.00;99514.28;4393860;32;20000;-87
2022/09/19 12:49:37;;;;;;;;;;;;;;;15.10;60.01;99503.53;4380496;32;20340;-86
2022/09/19 12:52:19;;;;;;;;;;;;;;;15.04;60.01;99508.16;4380636;32;20041;-89
2022/09/19 12:55:04;;;;;;;;;;;;;;;14.77;59.99;99514.91;4367974;32;19994;-86
2022/09/19 12:57:36;;;;;;;;;;;;;;;14.82;60.00;99505.00;4393634;32;19989;-88
2022/09/19 13:00:01;;;;;;;;;;;;;;;14.58;59.99;99517.62;4394324;32;19963;-88
2022/09/19 13:02:33;;;;;;;;;;;;;;;14.69;59.99;99519.69;4367971;32;20068;-86
2022/09/19 13:05:15;;;;;;;;;;;;;;;14.93;60.00;99509.69;4380540;32;20356;-88
2022/09/19 13:07:45;;;;;;;;;;;;;;;15.20;60.02;99502.94;4380556;32;19974;-86
2022/09/19 13:10:25;;;;;;;;;;;;;;;15.33;60.03;99511.81;4380456;32;19974;-87
2022/09/19 13:12:50;;;;;;;;;;;;;;;15.34;60.03;99497.78;4380357;32;20091;-87
2022/09/19 13:15:15;;;;;;;;;;;;;;;15.51;60.03;99486.34;4380531;32;19995;-88